createdAt,value
2022-10-11T00:00:24.090Z,61.17
2022-10-11T00:02:26.585Z,61.11
2022-10-11T00:04:28.255Z,61.09
2022-10-11T00:06:30.055Z,61.17
2022-10-11T00:08:35.615Z,60.99
2022-10-11T00:10:37.255Z,61.40
2022-10-11T00:12:38.999Z,61.47
2022-10-11T00:14:40.694Z,61.56
2022-10-11T00:16:44.532Z,61.78
2022-10-11T00:18:46.240Z,61.94
2022-10-11T00:20:48.106Z,62.06
2022-10-11T00:22:49.869Z,62.47
2022-10-11T00:24:52.996Z,62.47
2022-10-11T00:26:54.683Z,62.91
2022-10-11T00:28:56.359Z,62.45
2022-10-11T00:30:58.215Z,62.61
2022-10-11T00:32:59.860Z,62.75
2022-10-11T00:35:06.221Z,62.77
2022-10-11T00:37:07.809Z,62.78
2022-10-11T00:39:09.478Z,62.89
2022-10-11T00:41:11.933Z,62.65
2022-10-11T00:43:18.305Z,62.61
2022-10-11T00:45:32.174Z,62.87
2022-10-11T00:47:33.850Z,62.59
2022-10-11T00:49:39.064Z,63.13
2022-10-11T00:51:43.737Z,63.34
2022-10-11T00:53:47.264Z,63.53
2022-10-11T00:55:55.138Z,63.34
2022-10-11T00:57:57.189Z,63.19
2022-10-11T00:59:59.038Z,63.34
2022-10-11T01:02:00.595Z,63.35
2022-10-11T01:04:02.834Z,63.73
2022-10-11T01:06:04.993Z,63.85
2022-10-11T01:08:07.416Z,63.97
2022-10-11T01:10:09.265Z,63.75
2022-10-11T01:12:20.555Z,63.64
2022-10-11T01:14:44.036Z,63.59
2022-10-11T01:16:58.480Z,63.62
2022-10-11T01:19:15.034Z,63.79
2022-10-11T01:21:40.950Z,64.01
2022-10-11T01:24:04.661Z,64.14
2022-10-11T01:26:46.706Z,64.38
2022-10-11T01:29:02.421Z,64.34
2022-10-11T01:31:46.093Z,64.02
2022-10-11T01:33:58.249Z,64.44
2022-10-11T01:36:06.486Z,64.35
2022-10-11T01:38:34.613Z,64.08
2022-10-11T01:40:42.068Z,64.02
2022-10-11T01:42:44.077Z,63.84
2022-10-11T01:44:47.937Z,64.01
2022-10-11T01:46:51.780Z,63.75
2022-10-11T01:48:56.331Z,64.21
2022-10-11T01:50:58.869Z,64.13
2022-10-11T01:53:11.148Z,63.96
2022-10-11T01:55:22.238Z,64.12
2022-10-11T01:57:41.188Z,63.90
2022-10-11T02:00:07.481Z,64.15
2022-10-11T02:02:32.182Z,64.16
2022-10-11T02:04:36.271Z,64.35
2022-10-11T02:07:02.048Z,64.09
2022-10-11T02:09:14.773Z,64.63
2022-10-11T02:11:26.828Z,64.74
2022-10-11T02:13:37.728Z,64.61
2022-10-11T02:15:41.138Z,64.48
2022-10-11T02:17:47.995Z,64.78
2022-10-11T02:19:51.956Z,65.15
2022-10-11T02:21:57.202Z,64.98
2022-10-11T02:24:20.627Z,65.10
2022-10-11T02:26:23.760Z,64.95
2022-10-11T02:28:30.130Z,65.24
2022-10-11T02:30:32.249Z,65.16
2022-10-11T02:32:34.667Z,65.16
2022-10-11T02:34:40.023Z,65.27
2022-10-11T02:37:09.018Z,65.53
2022-10-11T02:39:15.684Z,64.96
2022-10-11T02:41:31.605Z,65.05
2022-10-11T02:43:43.495Z,64.96
2022-10-11T02:45:48.466Z,65.10
2022-10-11T02:47:50.297Z,65.04
2022-10-11T02:49:52.179Z,65.45
2022-10-11T02:51:56.359Z,65.34
2022-10-11T02:53:57.841Z,65.28
2022-10-11T02:55:59.463Z,65.27
2022-10-11T02:58:01.490Z,65.63
2022-10-11T03:00:04.488Z,65.45
2022-10-11T03:02:06.159Z,65.25
2022-10-11T03:04:07.902Z,65.22
2022-10-11T03:06:09.719Z,65.45
2022-10-11T03:08:12.953Z,65.74
2022-10-11T03:10:14.747Z,65.59
2022-10-11T03:12:16.409Z,65.44
2022-10-11T03:14:18.136Z,65.70
2022-10-11T03:16:19.839Z,65.49
2022-10-11T03:18:21.959Z,65.69
2022-10-11T03:20:23.946Z,65.50
2022-10-11T03:22:25.637Z,66.36
2022-10-11T03:24:27.394Z,65.93
2022-10-11T03:26:29.075Z,65.84
2022-10-11T03:28:30.736Z,65.96
2022-10-11T03:30:32.831Z,65.76
2022-10-11T03:32:34.682Z,65.45
2022-10-11T03:34:36.336Z,65.80
2022-10-11T03:36:38.190Z,65.65
2022-10-11T03:38:39.943Z,65.42
2022-10-11T03:40:42.801Z,65.54
2022-10-11T03:42:44.477Z,65.50
2022-10-11T03:44:46.156Z,65.82
2022-10-11T03:46:47.786Z,65.46
2022-10-11T03:48:49.395Z,65.72
2022-10-11T03:51:00.080Z,65.64
2022-10-11T03:53:01.686Z,65.77
2022-10-11T03:55:03.665Z,66.22
2022-10-11T03:57:05.322Z,65.91
2022-10-11T03:59:06.954Z,66.22
2022-10-11T04:01:09.053Z,66.44
2022-10-11T04:03:10.758Z,66.01
2022-10-11T04:05:12.739Z,66.08
2022-10-11T04:07:14.404Z,65.97
2022-10-11T04:09:15.979Z,66.21
2022-10-11T04:11:17.614Z,66.24
2022-10-11T04:13:19.177Z,66.24
2022-10-11T04:15:20.767Z,66.27
2022-10-11T04:17:22.434Z,66.44
2022-10-11T04:19:24.152Z,66.26
2022-10-11T04:21:25.742Z,66.31
2022-10-11T04:23:27.630Z,66.27
2022-10-11T04:25:29.296Z,66.35
2022-10-11T04:27:30.899Z,66.48
2022-10-11T04:29:33.031Z,66.62
2022-10-11T04:31:34.660Z,67.10
2022-10-11T04:33:36.272Z,67.20
2022-10-11T04:35:37.922Z,67.14
2022-10-11T04:37:39.545Z,67.03
2022-10-11T04:39:41.327Z,66.63
2022-10-11T04:41:42.985Z,66.66
2022-10-11T04:43:44.562Z,66.91
2022-10-11T04:45:46.748Z,66.69
2022-10-11T04:47:48.665Z,66.54
2022-10-11T04:49:50.316Z,66.57
2022-10-11T04:51:52.019Z,66.59
2022-10-11T04:53:53.922Z,66.35
2022-10-11T04:56:01.255Z,65.98
2022-10-11T04:58:03.359Z,65.82
2022-10-11T05:00:05.613Z,65.54
2022-10-11T05:02:07.256Z,65.67
2022-10-11T05:04:09.052Z,65.51
2022-10-11T05:06:11.154Z,65.36
2022-10-11T05:08:13.081Z,65.43
2022-10-11T05:10:15.094Z,65.18
2022-10-11T05:12:16.658Z,65.80
2022-10-11T05:14:18.281Z,65.44
2022-10-11T05:16:19.980Z,65.20
2022-10-11T05:18:21.755Z,65.16
2022-10-11T05:20:23.465Z,65.42
2022-10-11T05:22:25.188Z,65.84
2022-10-11T05:24:26.884Z,65.34
2022-10-11T05:26:28.906Z,65.16
2022-10-11T05:28:30.777Z,65.12
2022-10-11T05:30:32.553Z,64.75
2022-10-11T05:32:34.182Z,64.86
2022-10-11T05:34:35.783Z,64.69
2022-10-11T05:36:37.403Z,64.34
2022-10-11T05:38:39.502Z,64.68
2022-10-11T05:40:41.109Z,64.35
2022-10-11T05:42:42.792Z,64.39
2022-10-11T05:44:44.655Z,64.43
2022-10-11T05:46:46.327Z,64.16
2022-10-11T05:48:48.032Z,64.01
2022-10-11T05:50:49.977Z,63.80
2022-10-11T05:52:51.574Z,64.49
2022-10-11T05:54:53.268Z,65.16
2022-10-11T05:56:54.825Z,65.33
2022-10-11T05:59:01.351Z,65.30
2022-10-11T06:01:04.223Z,65.15
2022-10-11T06:03:07.889Z,64.49
2022-10-11T06:05:09.657Z,64.48
2022-10-11T06:07:11.407Z,64.45
2022-10-11T06:09:13.312Z,64.09
2022-10-11T06:11:17.782Z,63.94
2022-10-11T06:13:19.434Z,64.05
2022-10-11T06:15:20.997Z,64.28
2022-10-11T06:17:23.876Z,64.61
2022-10-11T06:19:25.765Z,64.64
2022-10-11T06:21:27.477Z,64.79
2022-10-11T06:23:29.329Z,64.49
2022-10-11T06:25:31.201Z,64.63
2022-10-11T06:27:32.784Z,64.60
2022-10-11T06:29:35.425Z,64.60
2022-10-11T06:31:37.180Z,64.57
2022-10-11T06:33:39.089Z,64.80
2022-10-11T06:35:40.629Z,64.37
2022-10-11T06:37:42.301Z,64.53
2022-10-11T06:39:43.940Z,64.33
2022-10-11T06:41:45.856Z,64.49
2022-10-11T06:43:49.565Z,64.27
2022-10-11T06:45:51.051Z,64.18
2022-10-11T06:47:52.666Z,64.10
2022-10-11T06:49:54.588Z,64.02
2022-10-11T06:51:56.220Z,64.35
2022-10-11T06:53:59.177Z,64.59
2022-10-11T06:56:11.580Z,64.93
2022-10-11T06:58:13.189Z,65.65
2022-10-11T07:00:15.333Z,65.54
2022-10-11T07:02:16.971Z,65.74
2022-10-11T07:04:18.530Z,65.64
2022-10-11T07:06:22.735Z,65.83
2022-10-11T07:08:24.364Z,65.50
2022-10-11T07:10:26.081Z,65.63
2022-10-11T07:12:28.911Z,65.88
2022-10-11T07:14:30.540Z,66.17
2022-10-11T07:16:32.151Z,67.11
2022-10-11T07:18:34.145Z,67.75
2022-10-11T07:20:35.944Z,67.92
2022-10-11T07:22:37.589Z,67.80
2022-10-11T07:24:39.745Z,67.18
2022-10-11T07:26:42.458Z,67.30
2022-10-11T07:28:44.754Z,67.14
2022-10-11T07:30:46.585Z,66.69
2022-10-11T07:32:48.326Z,66.46
2022-10-11T07:34:50.030Z,66.38
2022-10-11T07:36:51.603Z,66.12
2022-10-11T07:38:53.425Z,65.87
2022-10-11T07:40:55.137Z,65.78
2022-10-11T07:42:58.155Z,65.33
2022-10-11T07:44:59.791Z,64.93
2022-10-11T07:47:01.345Z,64.35
2022-10-11T07:49:02.950Z,64.78
2022-10-11T07:51:17.090Z,64.67
2022-10-11T07:53:18.577Z,65.27
2022-10-11T07:55:20.135Z,65.58
2022-10-11T07:57:22.016Z,65.26
2022-10-11T07:59:23.653Z,65.33
2022-10-11T08:01:26.614Z,64.62
2022-10-11T08:03:28.588Z,64.15
2022-10-11T08:05:30.784Z,64.27
2022-10-11T08:07:32.426Z,64.15
2022-10-11T08:09:34.061Z,64.69
2022-10-11T08:11:37.508Z,65.60
2022-10-11T08:13:39.518Z,65.79
2022-10-11T08:15:41.358Z,65.26
2022-10-11T08:17:43.001Z,64.81
2022-10-11T08:19:44.654Z,64.30
2022-10-11T08:21:46.475Z,63.93
2022-10-11T08:23:48.181Z,63.02
2022-10-11T08:25:49.787Z,62.50
2022-10-11T08:27:51.447Z,63.10
2022-10-11T08:29:53.070Z,63.46
2022-10-11T08:31:54.690Z,63.61
2022-10-11T08:33:56.502Z,64.70
2022-10-11T08:35:58.486Z,65.04
2022-10-11T08:38:00.070Z,65.52
2022-10-11T08:40:03.430Z,65.32
2022-10-11T08:42:19.640Z,65.42
2022-10-11T08:44:58.405Z,65.78
2022-10-11T08:47:20.956Z,65.75
2022-10-11T08:49:25.249Z,65.05
2022-10-11T08:51:43.209Z,65.60
2022-10-11T08:53:59.274Z,65.55
2022-10-11T08:56:04.475Z,65.31
2022-10-11T08:58:06.457Z,64.91
2022-10-11T09:00:14.656Z,64.72
2022-10-11T09:03:09.562Z,64.93
2022-10-11T09:05:15.998Z,64.31
2022-10-11T09:07:22.723Z,64.02
2022-10-11T09:10:02.895Z,65.36
2022-10-11T09:12:18.903Z,65.74
2022-10-11T09:14:39.021Z,65.34
2022-10-11T09:16:55.829Z,65.20
2022-10-11T09:19:28.477Z,64.61
2022-10-11T09:21:42.942Z,64.54
2022-10-11T09:24:23.937Z,64.03
2022-10-11T09:26:38.007Z,63.96
2022-10-11T09:28:51.083Z,62.99
2022-10-11T09:30:55.118Z,62.51
2022-10-11T09:33:03.548Z,61.73
2022-10-11T09:35:24.490Z,61.62
2022-10-11T09:37:33.666Z,61.03
2022-10-11T09:39:45.230Z,60.76
2022-10-11T09:41:58.885Z,60.12
2022-10-11T09:44:00.504Z,60.49
2022-10-11T09:46:02.364Z,61.06
2022-10-11T09:48:05.884Z,61.17
2022-10-11T09:50:15.148Z,61.04
2022-10-11T09:52:19.364Z,60.24
2022-10-11T09:54:27.350Z,60.16
2022-10-11T09:56:30.528Z,60.09
2022-10-11T09:58:35.249Z,60.25
2022-10-11T10:00:36.941Z,60.60
2022-10-11T10:02:42.675Z,60.62
2022-10-11T10:05:10.317Z,60.12
2022-10-11T10:07:13.162Z,59.45
2022-10-11T10:09:24.300Z,58.59
2022-10-11T10:11:26.093Z,58.43
2022-10-11T10:13:51.077Z,58.46
2022-10-11T10:15:56.066Z,58.18
2022-10-11T10:17:58.310Z,58.17
2022-10-11T10:20:00.695Z,57.66
2022-10-11T10:22:02.415Z,56.97
2022-10-11T10:24:08.911Z,57.23
2022-10-11T10:26:13.768Z,56.92
2022-10-11T10:28:22.449Z,57.27
2022-10-11T10:30:24.973Z,55.97
2022-10-11T10:32:32.270Z,56.66
2022-10-11T10:34:35.991Z,57.30
2022-10-11T10:36:37.453Z,58.35
2022-10-11T10:38:56.867Z,58.75
2022-10-11T10:41:11.089Z,59.19
2022-10-11T10:43:17.273Z,58.67
2022-10-11T10:45:21.849Z,57.99
2022-10-11T10:47:40.879Z,57.90
2022-10-11T10:49:55.221Z,56.81
2022-10-11T10:52:09.340Z,57.19
2022-10-11T10:54:25.416Z,57.40
2022-10-11T10:56:46.821Z,57.13
2022-10-11T10:59:29.886Z,57.74
2022-10-11T11:01:45.738Z,57.86
2022-10-11T11:04:25.812Z,57.84
2022-10-11T11:06:35.742Z,57.57
2022-10-11T11:09:15.841Z,57.90
2022-10-11T11:11:38.846Z,59.09
2022-10-11T11:13:49.499Z,59.86
2022-10-11T11:16:10.690Z,60.08
2022-10-11T11:19:23.453Z,60.33
2022-10-11T11:21:31.093Z,59.62
2022-10-11T11:23:46.389Z,59.19
2022-10-11T11:26:10.524Z,59.01
2022-10-11T11:28:17.243Z,58.75
2022-10-11T11:30:41.062Z,58.78
2022-10-11T11:33:16.343Z,58.79
2022-10-11T11:35:48.814Z,58.64
2022-10-11T11:38:00.157Z,58.88
2022-10-11T11:40:43.665Z,59.15
2022-10-11T11:42:50.917Z,58.42
2022-10-11T11:44:53.136Z,57.94
2022-10-11T11:47:05.041Z,57.31
2022-10-11T11:49:13.432Z,56.96
2022-10-11T11:51:30.591Z,56.77
2022-10-11T11:54:02.862Z,56.85
2022-10-11T11:56:26.891Z,56.90
2022-10-11T11:58:49.617Z,56.75
2022-10-11T12:01:01.462Z,56.93
2022-10-11T12:03:09.988Z,57.80
2022-10-11T12:05:15.157Z,57.49
2022-10-11T12:07:23.110Z,57.57
2022-10-11T12:09:24.965Z,58.40
2022-10-11T12:11:33.147Z,58.80
2022-10-11T12:13:38.353Z,58.59
2022-10-11T12:15:40.103Z,58.51
2022-10-11T12:17:57.186Z,58.45
2022-10-11T12:20:13.444Z,58.60
2022-10-11T12:22:27.218Z,58.20
2022-10-11T12:24:58.465Z,58.59
2022-10-11T12:27:36.573Z,59.04
2022-10-11T12:29:47.541Z,59.49
2022-10-11T12:32:32.042Z,59.42
2022-10-11T12:34:43.075Z,59.00
2022-10-11T12:36:49.338Z,58.54
2022-10-11T12:39:18.667Z,58.33
2022-10-11T12:41:38.485Z,57.87
2022-10-11T12:43:49.211Z,58.16
2022-10-11T12:45:51.154Z,58.80
2022-10-11T12:48:01.643Z,58.57
2022-10-11T12:50:29.357Z,59.21
2022-10-11T12:52:42.772Z,59.44
2022-10-11T12:54:53.516Z,59.20
2022-10-11T12:57:23.093Z,58.93
2022-10-11T12:59:25.081Z,59.36
2022-10-11T13:01:29.527Z,58.98
2022-10-11T13:03:35.369Z,58.39
2022-10-11T13:05:49.742Z,58.57
2022-10-11T13:07:56.130Z,58.60
2022-10-11T13:09:58.053Z,58.31
2022-10-11T13:12:08.921Z,58.35
2022-10-11T13:14:16.376Z,57.84
2022-10-11T13:16:21.446Z,57.62
2022-10-11T13:18:25.221Z,57.93
2022-10-11T13:20:31.109Z,57.95
2022-10-11T13:22:35.660Z,57.49
2022-10-11T13:24:39.998Z,57.57
2022-10-11T13:26:43.497Z,57.38
2022-10-11T13:28:45.246Z,56.91
2022-10-11T13:30:49.794Z,56.95
2022-10-11T13:32:52.216Z,57.44
2022-10-11T13:35:01.312Z,57.44
2022-10-11T13:37:02.980Z,57.55
2022-10-11T13:39:04.828Z,57.50
2022-10-11T13:41:09.081Z,57.14
2022-10-11T13:43:12.549Z,57.13
2022-10-11T13:45:16.693Z,56.77
2022-10-11T13:47:21.402Z,57.09
2022-10-11T13:49:37.432Z,56.83
2022-10-11T13:51:39.381Z,55.77
2022-10-11T13:54:00.695Z,55.63
2022-10-11T13:56:08.210Z,55.45
2022-10-11T13:58:18.772Z,55.12
2022-10-11T14:00:24.112Z,55.28
2022-10-11T14:02:26.516Z,55.60
2022-10-11T14:04:29.941Z,55.66
2022-10-11T14:06:38.845Z,56.23
2022-10-11T14:08:48.597Z,56.37
2022-10-11T14:10:55.644Z,57.32
2022-10-11T14:13:00.499Z,57.35
2022-10-11T14:15:05.957Z,57.79
2022-10-11T14:17:10.626Z,57.87
2022-10-11T14:19:12.601Z,58.18
2022-10-11T14:21:23.061Z,58.47
2022-10-11T14:23:24.861Z,58.50
2022-10-11T14:25:26.752Z,59.27
2022-10-11T14:27:28.781Z,59.44
2022-10-11T14:29:38.871Z,59.54
2022-10-11T14:31:42.141Z,59.83
2022-10-11T14:33:44.109Z,60.24
2022-10-11T14:35:45.734Z,60.15
2022-10-11T14:37:47.778Z,60.16
2022-10-11T14:39:49.617Z,60.18
2022-10-11T14:41:52.092Z,60.54
2022-10-11T14:43:56.421Z,61.34
2022-10-11T14:45:58.278Z,61.88
2022-10-11T14:47:59.883Z,61.86
2022-10-11T14:50:02.664Z,61.93
2022-10-11T14:52:07.489Z,61.97
2022-10-11T14:54:11.190Z,62.35
2022-10-11T14:56:21.096Z,62.67
2022-10-11T14:58:23.260Z,62.21
2022-10-11T15:00:28.248Z,61.96
2022-10-11T15:02:29.871Z,61.97
2022-10-11T15:04:31.689Z,61.73
2022-10-11T15:06:34.660Z,61.19
2022-10-11T15:08:36.253Z,60.75
2022-10-11T15:10:39.944Z,60.27
2022-10-11T15:12:41.517Z,59.99
2022-10-11T15:14:43.145Z,59.65
2022-10-11T15:16:44.737Z,59.04
2022-10-11T15:18:51.143Z,58.64
2022-10-11T15:20:54.982Z,58.64
2022-10-11T15:22:57.171Z,58.33
2022-10-11T15:25:00.280Z,57.94
2022-10-11T15:27:01.891Z,57.86
2022-10-11T15:29:03.765Z,57.41
2022-10-11T15:31:05.408Z,57.34
2022-10-11T15:33:06.999Z,56.69
2022-10-11T15:35:08.937Z,56.95
2022-10-11T15:37:10.597Z,56.99
2022-10-11T15:39:32.682Z,56.98
2022-10-11T15:41:34.293Z,57.56
2022-10-11T15:43:35.864Z,57.92
2022-10-11T15:45:37.465Z,57.92
2022-10-11T15:47:39.342Z,57.82
2022-10-11T15:49:40.898Z,58.14
2022-10-11T15:51:42.653Z,58.29
2022-10-11T15:53:44.716Z,57.88
2022-10-11T15:55:51.601Z,57.70
2022-10-11T15:57:53.217Z,57.81
2022-10-11T15:59:54.871Z,57.57
2022-10-11T16:01:57.227Z,57.58
2022-10-11T16:03:58.927Z,57.37
2022-10-11T16:06:05.170Z,57.05
2022-10-11T16:08:07.787Z,57.31
2022-10-11T16:10:09.644Z,56.95
2022-10-11T16:12:11.328Z,57.38
2022-10-11T16:14:12.917Z,57.43
2022-10-11T16:16:14.610Z,57.38
2022-10-11T16:18:18.460Z,56.62
2022-10-11T16:20:24.661Z,56.72
2022-10-11T16:22:26.933Z,56.97
2022-10-11T16:24:28.581Z,56.19
2022-10-11T16:26:30.183Z,55.84
2022-10-11T16:28:32.404Z,55.25
2022-10-11T16:30:35.368Z,55.35
2022-10-11T16:32:36.900Z,55.19
2022-10-11T16:34:38.757Z,54.76
2022-10-11T16:36:40.953Z,54.76
2022-10-11T16:38:42.577Z,55.36
2022-10-11T16:40:44.278Z,54.94
2022-10-11T16:42:46.854Z,55.32
2022-10-11T16:44:48.427Z,55.49
2022-10-11T16:46:50.201Z,55.71
2022-10-11T16:48:55.252Z,55.90
2022-10-11T16:51:05.428Z,56.24
2022-10-11T16:53:07.153Z,56.48
2022-10-11T16:55:09.235Z,56.86
2022-10-11T16:57:11.846Z,57.50
2022-10-11T16:59:13.542Z,57.06
2022-10-11T17:01:15.400Z,57.26
2022-10-11T17:03:17.049Z,57.45
2022-10-11T17:05:18.717Z,57.17
2022-10-11T17:07:21.577Z,57.38
2022-10-11T17:09:23.282Z,58.09
2022-10-11T17:11:24.998Z,58.23
2022-10-11T17:13:26.721Z,58.31
2022-10-11T17:15:30.444Z,58.51
2022-10-11T17:17:31.889Z,58.72
2022-10-11T17:19:34.071Z,58.74
2022-10-11T17:21:35.691Z,58.83
2022-10-11T17:23:37.788Z,59.24
2022-10-11T17:25:43.523Z,59.27
2022-10-11T17:27:45.117Z,59.38
2022-10-11T17:29:46.705Z,58.88
2022-10-11T17:31:49.471Z,57.90
2022-10-11T17:33:53.159Z,57.99
2022-10-11T17:35:55.517Z,57.99
2022-10-11T17:37:57.170Z,58.35
2022-10-11T17:39:58.821Z,58.35
2022-10-11T17:42:05.031Z,58.23
2022-10-11T17:44:06.680Z,58.42
2022-10-11T17:46:09.342Z,57.88
2022-10-11T17:48:11.059Z,58.03
2022-10-11T17:50:12.732Z,57.83
2022-10-11T17:52:14.296Z,57.72
2022-10-11T17:54:16.746Z,57.65
2022-10-11T17:56:27.795Z,57.34
2022-10-11T17:58:30.476Z,57.25
2022-10-11T18:00:32.135Z,57.24
2022-10-11T18:02:33.829Z,57.44
2022-10-11T18:04:35.493Z,57.08
2022-10-11T18:06:39.426Z,57.38
2022-10-11T18:08:41.886Z,57.35
2022-10-11T18:10:47.463Z,57.57
2022-10-11T18:12:53.349Z,57.76
2022-10-11T18:14:54.949Z,57.63
2022-10-11T18:16:56.905Z,57.88
2022-10-11T18:18:59.226Z,58.29
2022-10-11T18:21:01.336Z,58.47
2022-10-11T18:23:02.961Z,59.03
2022-10-11T18:25:04.917Z,58.97
2022-10-11T18:27:06.505Z,59.05
2022-10-11T18:29:08.180Z,59.26
2022-10-11T18:31:13.876Z,59.37
2022-10-11T18:33:16.432Z,59.46
2022-10-11T18:35:18.054Z,59.37
2022-10-11T18:37:19.677Z,59.44
2022-10-11T18:39:22.012Z,59.54
2022-10-11T18:41:25.130Z,59.90
2022-10-11T18:43:26.928Z,60.39
2022-10-11T18:45:28.546Z,60.79
2022-10-11T18:47:30.209Z,61.06
2022-10-11T18:49:31.812Z,61.26
2022-10-11T18:51:36.813Z,61.70
2022-10-11T18:53:38.662Z,61.55
2022-10-11T18:55:40.297Z,61.99
2022-10-11T18:57:42.179Z,62.18
2022-10-11T18:59:43.769Z,61.88
2022-10-11T19:01:45.488Z,62.21
2022-10-11T19:03:49.756Z,62.44
2022-10-11T19:05:51.345Z,62.54
2022-10-11T19:07:52.909Z,62.75
2022-10-11T19:09:54.562Z,62.26
2022-10-11T19:11:57.501Z,63.04
2022-10-11T19:14:08.490Z,63.08
2022-10-11T19:16:15.280Z,63.55
2022-10-11T19:18:20.363Z,63.25
2022-10-11T19:20:22.195Z,63.27
2022-10-11T19:22:23.890Z,63.24
2022-10-11T19:24:27.615Z,63.71
2022-10-11T19:26:31.375Z,63.42
2022-10-11T19:28:33.575Z,63.42
2022-10-11T19:30:35.188Z,63.47
2022-10-11T19:32:36.766Z,63.87
2022-10-11T19:34:38.452Z,63.68
2022-10-11T19:36:43.368Z,63.24
2022-10-11T19:38:46.874Z,63.36
2022-10-11T19:40:48.511Z,63.50
2022-10-11T19:42:50.356Z,63.58
2022-10-11T19:44:52.070Z,63.33
2022-10-11T19:46:53.683Z,63.65
2022-10-11T19:48:55.360Z,63.49
2022-10-11T19:51:08.691Z,63.76
2022-10-11T19:53:10.252Z,63.79
2022-10-11T19:55:11.878Z,63.77
2022-10-11T19:57:13.454Z,63.78
2022-10-11T19:59:15.466Z,63.80
2022-10-11T20:01:19.985Z,64.18
2022-10-11T20:03:21.734Z,64.79
2022-10-11T20:05:23.305Z,65.58
2022-10-11T20:07:24.950Z,65.73
2022-10-11T20:09:30.858Z,65.94
2022-10-11T20:11:32.750Z,66.25
2022-10-11T20:13:35.635Z,66.16
2022-10-11T20:15:38.201Z,66.22
2022-10-11T20:17:48.772Z,66.30
2022-10-11T20:19:50.408Z,66.67
2022-10-11T20:21:52.231Z,67.05
2022-10-11T20:23:57.709Z,66.91
2022-10-11T20:26:04.389Z,67.08
2022-10-11T20:28:06.010Z,67.17
2022-10-11T20:30:08.025Z,67.41
2022-10-11T20:32:09.664Z,67.34
2022-10-11T20:34:11.628Z,67.32
2022-10-11T20:36:15.889Z,67.76
2022-10-11T20:38:17.485Z,67.50
2022-10-11T20:40:19.641Z,67.63
2022-10-11T20:42:21.245Z,67.57
2022-10-11T20:44:23.024Z,67.71
2022-10-11T20:46:27.972Z,67.95
2022-10-11T20:48:30.183Z,67.89
2022-10-11T20:50:31.753Z,68.20
2022-10-11T20:52:33.633Z,68.08
2022-10-11T20:54:37.080Z,68.29
2022-10-11T20:56:38.915Z,68.17
2022-10-11T20:58:41.417Z,68.25
2022-10-11T21:00:43.632Z,68.55
2022-10-11T21:02:45.206Z,68.47
2022-10-11T21:04:47.139Z,68.59
2022-10-11T21:06:49.003Z,68.74
2022-10-11T21:08:50.573Z,68.64
2022-10-11T21:10:53.570Z,68.66
2022-10-11T21:12:55.644Z,68.66
2022-10-11T21:14:57.337Z,68.94
2022-10-11T21:16:58.889Z,69.04
2022-10-11T21:19:01.703Z,69.10
2022-10-11T21:21:12.282Z,69.15
2022-10-11T21:23:14.710Z,69.09
2022-10-11T21:25:16.374Z,68.86
2022-10-11T21:27:18.015Z,68.74
2022-10-11T21:29:19.629Z,68.74
2022-10-11T21:31:22.543Z,68.75
2022-10-11T21:33:24.203Z,68.75
2022-10-11T21:35:27.241Z,68.82
2022-10-11T21:37:28.810Z,69.01
2022-10-11T21:39:30.502Z,69.04
2022-10-11T21:41:33.982Z,69.20
2022-10-11T21:43:38.120Z,69.15
2022-10-11T21:45:39.829Z,69.34
2022-10-11T21:47:43.685Z,69.22
2022-10-11T21:49:45.341Z,69.15
2022-10-11T21:51:47.019Z,69.28
2022-10-11T21:53:48.635Z,69.50
2022-10-11T21:55:57.225Z,69.29
2022-10-11T21:57:59.003Z,69.18
2022-10-11T22:00:00.611Z,69.34
2022-10-11T22:02:02.392Z,69.52
2022-10-11T22:04:05.075Z,69.36
2022-10-11T22:06:06.685Z,69.38
2022-10-11T22:08:08.307Z,69.35
2022-10-11T22:10:10.034Z,69.54
2022-10-11T22:12:11.604Z,69.54
2022-10-11T22:14:13.144Z,69.81
2022-10-11T22:16:15.117Z,70.29
2022-10-11T22:18:16.841Z,70.46
2022-10-11T22:20:18.446Z,70.39
2022-10-11T22:22:20.044Z,70.52
2022-10-11T22:24:21.680Z,70.38
2022-10-11T22:26:25.753Z,70.62
2022-10-11T22:28:27.659Z,70.90
2022-10-11T22:30:29.521Z,70.85
2022-10-11T22:32:31.159Z,71.08
2022-10-11T22:34:33.399Z,71.80
2022-10-11T22:36:35.117Z,72.33
2022-10-11T22:38:37.629Z,72.51
2022-10-11T22:40:42.321Z,72.67
2022-10-11T22:42:44.389Z,72.56
2022-10-11T22:44:46.062Z,72.23
2022-10-11T22:46:47.750Z,72.40
2022-10-11T22:48:49.366Z,72.34
2022-10-11T22:50:51.469Z,72.27
2022-10-11T22:52:53.036Z,72.05
2022-10-11T22:54:54.622Z,72.17
2022-10-11T22:56:56.440Z,72.15
2022-10-11T22:58:59.381Z,72.15
2022-10-11T23:01:12.135Z,72.14
2022-10-11T23:03:15.271Z,72.29
2022-10-11T23:05:16.911Z,72.33
2022-10-11T23:07:18.655Z,72.40
2022-10-11T23:09:20.353Z,72.43
2022-10-11T23:11:21.981Z,72.62
2022-10-11T23:13:23.605Z,72.74
2022-10-11T23:15:25.274Z,72.60
2022-10-11T23:17:26.894Z,72.73
2022-10-11T23:19:28.617Z,72.86
2022-10-11T23:21:30.190Z,73.33
2022-10-11T23:23:31.827Z,73.52
2022-10-11T23:25:33.597Z,73.21
2022-10-11T23:27:35.500Z,72.94
2022-10-11T23:29:40.969Z,72.73
2022-10-11T23:31:42.573Z,72.42
2022-10-11T23:33:45.220Z,72.33
2022-10-11T23:35:47.037Z,72.31
2022-10-11T23:37:48.840Z,72.15
2022-10-11T23:39:50.480Z,71.91
2022-10-11T23:41:52.079Z,71.72
2022-10-11T23:43:53.791Z,71.79
2022-10-11T23:45:55.928Z,71.68
2022-10-11T23:47:57.515Z,71.64
2022-10-11T23:49:59.146Z,71.55
2022-10-11T23:52:00.816Z,71.39
2022-10-11T23:54:02.826Z,71.60
2022-10-11T23:56:05.649Z,71.43
2022-10-11T23:58:07.247Z,71.42
